Terminal Aerodrome Forecast
Issued by NWS

Current Version | Previous Version | Graphics & Text | Print | Product List | Glossary On
Versions: 1 2 3 4 5 6 7 8 9 10 11 12 13 14 15 16 17 18 19 20
923
FTUS41 KILN 221420 AAB
TAFLCK
TAF AMD
KLCK 221420Z 2214/2312 25009KT P6SM SCT040 BKN150
      TEMPO 2214/2216 29015G25KT 5SM -TSRA BKN035CB
     FM221600 24011KT P6SM VCTS SCT040CB BKN150
     FM230100 24004KT P6SM SCT250=

USA.gov is the U.S. government's official web portal to all federal, state and local government web resources and services.